sensor_id;sensor_type;location;lat;lon;timestamp;pressure;altitude;pressure_sealevel;temperature;humidity
57086;BME280;42964;42.910;23.792;2023-02-03T00:03:26;97899.88;;;1.60;76.93
57086;BME280;42964;42.910;23.792;2023-02-03T00:08:25;97912.38;;;1.74;76.08
57086;BME280;42964;42.910;23.792;2023-02-03T00:13:24;97902.13;;;1.74;75.86
57086;BME280;42964;42.910;23.792;2023-02-03T00:18:24;97911.22;;;1.66;75.76
57086;BME280;42964;42.910;23.792;2023-02-03T00:23:23;97927.00;;;1.32;76.70
57086;BME280;42964;42.910;23.792;2023-02-03T00:28:23;97936.91;;;1.02;77.68
57086;BME280;42964;42.910;23.792;2023-02-03T00:33:25;97943.06;;;1.07;77.11
57086;BME280;42964;42.910;23.792;2023-02-03T00:38:26;97945.41;;;1.23;76.67
57086;BME280;42964;42.910;23.792;2023-02-03T00:43:25;97941.88;;;1.42;75.84
57086;BME280;42964;42.910;23.792;2023-02-03T00:48:24;97959.47;;;1.57;75.09
57086;BME280;42964;42.910;23.792;2023-02-03T00:53:23;97951.97;;;1.62;75.38
57086;BME280;42964;42.910;23.792;2023-02-03T00:58:22;97939.00;;;1.57;75.18
57086;BME280;42964;42.910;23.792;2023-02-03T01:03:21;97939.75;;;1.54;74.91
57086;BME280;42964;42.910;23.792;2023-02-03T01:08:20;97934.22;;;1.66;74.00
57086;BME280;42964;42.910;23.792;2023-02-03T01:13:21;97932.59;;;1.68;73.58
57086;BME280;42964;42.910;23.792;2023-02-03T01:18:20;97919.34;;;1.79;72.63
57086;BME280;42964;42.910;23.792;2023-02-03T01:23:19;97947.00;;;1.89;71.22
57086;BME280;42964;42.910;23.792;2023-02-03T01:28:18;97949.56;;;1.66;70.52
57086;BME280;42964;42.910;23.792;2023-02-03T01:33:16;97941.72;;;1.84;70.08
57086;BME280;42964;42.910;23.792;2023-02-03T01:38:15;97945.13;;;1.85;70.07
57086;BME280;42964;42.910;23.792;2023-02-03T01:43:36;97955.28;;;1.82;69.43
57086;BME280;42964;42.910;23.792;2023-02-03T01:48:36;97964.81;;;1.86;69.49
57086;BME280;42964;42.910;23.792;2023-02-03T01:53:35;97944.69;;;1.72;69.83
57086;BME280;42964;42.910;23.792;2023-02-03T01:58:38;97953.41;;;1.78;69.39
57086;BME280;42964;42.910;23.792;2023-02-03T02:03:45;97936.91;;;1.69;69.07
57086;BME280;42964;42.910;23.792;2023-02-03T02:08:49;97851.41;;;1.16;68.40
57086;BME280;42964;42.910;23.792;2023-02-03T02:13:50;97959.91;;;1.92;67.20
57086;BME280;42964;42.910;23.792;2023-02-03T02:45:21;97997.19;;;2.57;62.11
57086;BME280;42964;42.910;23.792;2023-02-03T02:50:25;98001.41;;;2.81;62.05
57086;BME280;42964;42.910;23.792;2023-02-03T02:55:31;97999.84;;;2.86;61.99
57086;BME280;42964;42.910;23.792;2023-02-03T03:00:33;98000.16;;;2.95;60.94
57086;BME280;42964;42.910;23.792;2023-02-03T03:05:33;97993.59;;;3.04;60.29
57086;BME280;42964;42.910;23.792;2023-02-03T03:10:33;97994.09;;;2.92;55.86
57086;BME280;42964;42.910;23.792;2023-02-03T03:15:34;97992.59;;;2.98;54.44
57086;BME280;42964;42.910;23.792;2023-02-03T03:20:36;98014.31;;;3.37;54.65
57086;BME280;42964;42.910;23.792;2023-02-03T03:25:48;98016.41;;;3.49;55.56
57086;BME280;42964;42.910;23.792;2023-02-03T03:30:49;98027.22;;;3.40;54.73
57086;BME280;42964;42.910;23.792;2023-02-03T03:35:56;97975.09;;;3.12;55.04
57086;BME280;42964;42.910;23.792;2023-02-03T03:46:20;98031.47;;;3.38;54.60
57086;BME280;42964;42.910;23.792;2023-02-03T03:51:34;98042.25;;;3.55;54.21
57086;BME280;42964;42.910;23.792;2023-02-03T03:56:39;98038.56;;;3.47;53.79
57086;BME280;42964;42.910;23.792;2023-02-03T04:01:40;98026.00;;;3.27;53.30
57086;BME280;42964;42.910;23.792;2023-02-03T04:06:39;98041.88;;;3.42;53.21
57086;BME280;42964;42.910;23.792;2023-02-03T04:11:38;98035.22;;;3.22;53.30
57086;BME280;42964;42.910;23.792;2023-02-03T04:16:56;98048.47;;;3.09;53.27
57086;BME280;42964;42.910;23.792;2023-02-03T04:21:55;98049.59;;;3.17;53.93
57086;BME280;42964;42.910;23.792;2023-02-03T04:26:54;98062.91;;;3.32;54.00
57086;BME280;42964;42.910;23.792;2023-02-03T04:31:53;98068.88;;;3.31;54.42
57086;BME280;42964;42.910;23.792;2023-02-03T04:36:52;98062.19;;;3.36;55.10
57086;BME280;42964;42.910;23.792;2023-02-03T04:41:51;98064.66;;;3.33;54.93
57086;BME280;42964;42.910;23.792;2023-02-03T04:46:50;98072.78;;;3.20;54.58
57086;BME280;42964;42.910;23.792;2023-02-03T04:51:49;98078.97;;;3.27;54.51
57086;BME280;42964;42.910;23.792;2023-02-03T04:56:48;98069.28;;;3.18;55.29
57086;BME280;42964;42.910;23.792;2023-02-03T05:01:47;98085.59;;;3.20;54.76
57086;BME280;42964;42.910;23.792;2023-02-03T05:06:47;98081.47;;;3.25;54.59
57086;BME280;42964;42.910;23.792;2023-02-03T05:11:48;98097.88;;;3.29;56.15
57086;BME280;42964;42.910;23.792;2023-02-03T05:16:49;98091.38;;;3.14;53.58
57086;BME280;42964;42.910;23.792;2023-02-03T05:21:49;98102.47;;;3.13;52.04
57086;BME280;42964;42.910;23.792;2023-02-03T05:26:49;98102.78;;;3.22;51.18
57086;BME280;42964;42.910;23.792;2023-02-03T05:31:47;98106.13;;;3.47;51.63
57086;BME280;42964;42.910;23.792;2023-02-03T05:36:46;98102.97;;;3.54;49.79
57086;BME280;42964;42.910;23.792;2023-02-03T05:41:45;98121.97;;;3.61;49.43
57086;BME280;42964;42.910;23.792;2023-02-03T05:46:55;98127.56;;;3.48;49.32
57086;BME280;42964;42.910;23.792;2023-02-03T05:51:54;98145.50;;;3.48;50.25
57086;BME280;42964;42.910;23.792;2023-02-03T05:56:53;98162.88;;;3.56;51.61
57086;BME280;42964;42.910;23.792;2023-02-03T06:01:52;98148.25;;;3.54;50.72
57086;BME280;42964;42.910;23.792;2023-02-03T06:06:51;98131.91;;;3.50;50.69
57086;BME280;42964;42.910;23.792;2023-02-03T06:11:50;98155.78;;;3.75;51.06
57086;BME280;42964;42.910;23.792;2023-02-03T06:16:48;98159.75;;;3.65;50.42
57086;BME280;42964;42.910;23.792;2023-02-03T06:21:47;98163.66;;;3.54;51.03
57086;BME280;42964;42.910;23.792;2023-02-03T06:26:46;98173.50;;;3.41;50.93
57086;BME280;42964;42.910;23.792;2023-02-03T06:31:45;98177.41;;;3.30;51.27
57086;BME280;42964;42.910;23.792;2023-02-03T06:36:44;98185.28;;;3.11;51.06
57086;BME280;42964;42.910;23.792;2023-02-03T06:41:43;98185.50;;;2.93;50.95
57086;BME280;42964;42.910;23.792;2023-02-03T06:46:42;98173.59;;;3.19;51.36
57086;BME280;42964;42.910;23.792;2023-02-03T06:51:41;98205.13;;;3.40;51.53
57086;BME280;42964;42.910;23.792;2023-02-03T06:56:41;98221.72;;;3.50;52.68
57086;BME280;42964;42.910;23.792;2023-02-03T07:01:40;98238.16;;;3.81;51.96
57086;BME280;42964;42.910;23.792;2023-02-03T07:06:38;98233.66;;;4.01;52.19
57086;BME280;42964;42.910;23.792;2023-02-03T07:11:38;98165.50;;;3.58;52.54
57086;BME280;42964;42.910;23.792;2023-02-03T07:16:36;98232.22;;;4.09;52.79
57086;BME280;42964;42.910;23.792;2023-02-03T07:21:35;98228.97;;;4.15;52.90
57086;BME280;42964;42.910;23.792;2023-02-03T07:26:34;98183.22;;;4.03;52.60
57086;BME280;42964;42.910;23.792;2023-02-03T07:31:33;98234.09;;;4.42;53.06
57086;BME280;42964;42.910;23.792;2023-02-03T07:36:33;98229.44;;;4.57;53.30
57086;BME280;42964;42.910;23.792;2023-02-03T07:41:32;98235.03;;;4.72;52.73
57086;BME280;42964;42.910;23.792;2023-02-03T07:46:31;98251.31;;;5.00;52.77
57086;BME280;42964;42.910;23.792;2023-02-03T07:51:30;98235.75;;;5.26;50.13
57086;BME280;42964;42.910;23.792;2023-02-03T07:56:29;98238.03;;;5.47;50.58
57086;BME280;42964;42.910;23.792;2023-02-03T08:01:30;98233.13;;;5.56;49.29
57086;BME280;42964;42.910;23.792;2023-02-03T08:06:30;98235.72;;;5.58;48.94
57086;BME280;42964;42.910;23.792;2023-02-03T08:11:28;98242.00;;;5.67;48.04
57086;BME280;42964;42.910;23.792;2023-02-03T08:16:27;98249.00;;;5.41;48.99
57086;BME280;42964;42.910;23.792;2023-02-03T08:21:26;98249.44;;;5.57;49.66
57086;BME280;42964;42.910;23.792;2023-02-03T08:26:25;98235.56;;;5.51;48.83
57086;BME280;42964;42.910;23.792;2023-02-03T08:31:24;98240.53;;;5.45;49.01
57086;BME280;42964;42.910;23.792;2023-02-03T08:36:23;98249.50;;;5.60;47.09
57086;BME280;42964;42.910;23.792;2023-02-03T08:41:22;98242.69;;;5.62;45.15
57086;BME280;42964;42.910;23.792;2023-02-03T08:46:21;98236.31;;;5.79;44.68
57086;BME280;42964;42.910;23.792;2023-02-03T08:51:20;98234.53;;;5.78;44.44
57086;BME280;42964;42.910;23.792;2023-02-03T08:56:19;98212.69;;;5.95;44.21
57086;BME280;42964;42.910;23.792;2023-02-03T09:01:18;98256.44;;;5.62;42.55
57086;BME280;42964;42.910;23.792;2023-02-03T09:06:17;98238.72;;;5.41;41.97
57086;BME280;42964;42.910;23.792;2023-02-03T09:11:17;98249.38;;;5.53;42.29
57086;BME280;42964;42.910;23.792;2023-02-03T09:16:17;98250.59;;;5.68;41.45
57086;BME280;42964;42.910;23.792;2023-02-03T09:21:17;98253.28;;;5.72;41.88
57086;BME280;42964;42.910;23.792;2023-02-03T09:26:16;98254.66;;;5.60;40.58
57086;BME280;42964;42.910;23.792;2023-02-03T09:31:15;98233.31;;;5.64;41.52
57086;BME280;42964;42.910;23.792;2023-02-03T09:36:17;98243.00;;;5.74;40.84
57086;BME280;42964;42.910;23.792;2023-02-03T09:47:03;98222.81;;;6.24;38.31
57086;BME280;42964;42.910;23.792;2023-02-03T09:52:17;98229.88;;;6.33;38.22
57086;BME280;42964;42.910;23.792;2023-02-03T09:57:23;98216.78;;;6.25;39.01
57086;BME280;42964;42.910;23.792;2023-02-03T10:07:41;98205.91;;;7.19;37.68
57086;BME280;42964;42.910;23.792;2023-02-03T10:13:18;98204.13;;;7.15;36.39
57086;BME280;42964;42.910;23.792;2023-02-03T10:18:28;98152.31;;;7.04;37.15
57086;BME280;42964;42.910;23.792;2023-02-03T10:23:32;98198.16;;;7.17;35.73
57086;BME280;42964;42.910;23.792;2023-02-03T10:28:38;98186.22;;;7.22;37.92
57086;BME280;42964;42.910;23.792;2023-02-03T10:33:40;98190.09;;;7.44;35.93
57086;BME280;42964;42.910;23.792;2023-02-03T10:44:06;98176.53;;;7.11;34.03
57086;BME280;42964;42.910;23.792;2023-02-03T10:49:05;98161.75;;;7.48;33.90
57086;BME280;42964;42.910;23.792;2023-02-03T10:54:04;98156.84;;;7.63;32.66
57086;BME280;42964;42.910;23.792;2023-02-03T10:59:03;98155.31;;;7.74;32.44
57086;BME280;42964;42.910;23.792;2023-02-03T11:04:05;98134.00;;;7.89;30.43
57086;BME280;42964;42.910;23.792;2023-02-03T11:09:22;98086.59;;;7.35;31.62
57086;BME280;42964;42.910;23.792;2023-02-03T11:14:35;98142.41;;;7.74;29.99
57086;BME280;42964;42.910;23.792;2023-02-03T11:19:37;98133.91;;;7.81;31.22
57086;BME280;42964;42.910;23.792;2023-02-03T11:24:38;98136.22;;;7.66;30.56
57086;BME280;42964;42.910;23.792;2023-02-03T11:29:44;98112.78;;;7.52;29.76
57086;BME280;42964;42.910;23.792;2023-02-03T12:28:47;98092.63;;;7.86;36.17
57086;BME280;42964;42.910;23.792;2023-02-03T12:34:18;98090.53;;;8.20;36.35
57086;BME280;42964;42.910;23.792;2023-02-03T12:39:58;98075.66;;;8.70;37.37
57086;BME280;42964;42.910;23.792;2023-02-03T12:44:51;98062.25;;;9.08;36.34
57086;BME280;42964;42.910;23.792;2023-02-03T12:50:06;98059.09;;;9.37;36.69
57086;BME280;42964;42.910;23.792;2023-02-03T12:55:33;98052.25;;;9.42;35.71
57086;BME280;42964;42.910;23.792;2023-02-03T13:10:53;98048.56;;;9.20;34.54
57086;BME280;42964;42.910;23.792;2023-02-03T13:15:56;98061.59;;;9.28;35.63
57086;BME280;42964;42.910;23.792;2023-02-03T13:20:55;98041.81;;;9.36;35.57
57086;BME280;42964;42.910;23.792;2023-02-03T13:31:43;98044.59;;;9.59;35.02
57086;BME280;42964;42.910;23.792;2023-02-03T13:36:57;98053.25;;;9.61;34.45
57086;BME280;42964;42.910;23.792;2023-02-03T13:47:19;98058.53;;;9.76;34.20
57086;BME280;42964;42.910;23.792;2023-02-03T13:57:33;98055.75;;;9.49;32.84
57086;BME280;42964;42.910;23.792;2023-02-03T14:02:41;98053.19;;;9.49;33.57
57086;BME280;42964;42.910;23.792;2023-02-03T14:07:41;98065.34;;;9.62;33.51
57086;BME280;42964;42.910;23.792;2023-02-03T14:22:56;98052.53;;;8.84;33.03
57086;BME280;42964;42.910;23.792;2023-02-03T14:28:07;98060.63;;;8.40;33.38
57086;BME280;42964;42.910;23.792;2023-02-03T14:33:08;98075.75;;;8.09;33.67
57086;BME280;42964;42.910;23.792;2023-02-03T14:38:09;98011.91;;;7.43;34.12
57086;BME280;42964;42.910;23.792;2023-02-03T14:59:36;98029.78;;;5.97;35.45
57086;BME280;42964;42.910;23.792;2023-02-03T15:04:36;98071.91;;;5.99;36.53
57086;BME280;42964;42.910;23.792;2023-02-03T15:09:41;98066.19;;;5.73;36.98
57086;BME280;42964;42.910;23.792;2023-02-03T15:14:44;98051.00;;;5.47;36.62
57086;BME280;42964;42.910;23.792;2023-02-03T15:19:43;98054.56;;;5.18;38.04
57086;BME280;42964;42.910;23.792;2023-02-03T15:24:42;98048.44;;;4.81;38.49
57086;BME280;42964;42.910;23.792;2023-02-03T15:29:41;98053.00;;;4.59;39.11
57086;BME280;42964;42.910;23.792;2023-02-03T15:34:43;98059.63;;;4.51;39.83
57086;BME280;42964;42.910;23.792;2023-02-03T15:44:56;98025.09;;;4.41;40.95
57086;BME280;42964;42.910;23.792;2023-02-03T15:55:18;98030.41;;;4.17;40.66
57086;BME280;42964;42.910;23.792;2023-02-03T16:00:35;98030.97;;;4.07;41.05
57086;BME280;42964;42.910;23.792;2023-02-03T16:05:36;98021.94;;;3.90;41.70
57086;BME280;42964;42.910;23.792;2023-02-03T16:10:35;98021.38;;;3.71;41.84
57086;BME280;42964;42.910;23.792;2023-02-03T16:15:34;98028.97;;;3.68;42.47
57086;BME280;42964;42.910;23.792;2023-02-03T16:20:34;97994.78;;;3.40;43.03
57086;BME280;42964;42.910;23.792;2023-02-03T16:25:34;97998.34;;;3.46;43.07
57086;BME280;42964;42.910;23.792;2023-02-03T16:30:34;97864.34;;;2.70;43.39
57086;BME280;42964;42.910;23.792;2023-02-03T16:35:53;97986.34;;;3.44;43.96
57086;BME280;42964;42.910;23.792;2023-02-03T16:41:13;97981.19;;;3.43;44.79
57086;BME280;42964;42.910;23.792;2023-02-03T16:46:32;97962.16;;;3.36;44.85
57086;BME280;42964;42.910;23.792;2023-02-03T16:51:49;97953.53;;;3.34;44.69
57086;BME280;42964;42.910;23.792;2023-02-03T16:56:48;97947.78;;;3.41;44.77
57086;BME280;42964;42.910;23.792;2023-02-03T17:01:49;97932.94;;;3.31;44.78
57086;BME280;42964;42.910;23.792;2023-02-03T17:06:48;97940.63;;;3.31;43.85
57086;BME280;42964;42.910;23.792;2023-02-03T17:11:49;97936.41;;;3.33;43.69
57086;BME280;42964;42.910;23.792;2023-02-03T17:16:47;97939.78;;;3.32;44.10
57086;BME280;42964;42.910;23.792;2023-02-03T17:21:46;97856.44;;;2.89;43.82
57086;BME280;42964;42.910;23.792;2023-02-03T17:26:45;97909.66;;;3.25;43.26
57086;BME280;42964;42.910;23.792;2023-02-03T17:31:44;97899.44;;;3.27;43.49
57086;BME280;42964;42.910;23.792;2023-02-03T17:36:43;97904.25;;;3.44;43.33
57086;BME280;42964;42.910;23.792;2023-02-03T17:41:42;97852.25;;;3.20;43.04
57086;BME280;42964;42.910;23.792;2023-02-03T17:46:41;97875.94;;;3.41;43.17
57086;BME280;42964;42.910;23.792;2023-02-03T17:51:41;97871.91;;;3.50;43.03
57086;BME280;42964;42.910;23.792;2023-02-03T17:56:40;97862.38;;;3.46;42.43
57086;BME280;42964;42.910;23.792;2023-02-03T18:01:40;97848.06;;;3.54;43.17
57086;BME280;42964;42.910;23.792;2023-02-03T18:06:38;97829.28;;;3.55;43.09
57086;BME280;42964;42.910;23.792;2023-02-03T18:11:37;97837.72;;;3.51;43.41
57086;BME280;42964;42.910;23.792;2023-02-03T18:16:36;97831.84;;;3.55;42.81
57086;BME280;42964;42.910;23.792;2023-02-03T18:21:40;97824.06;;;3.52;43.08
57086;BME280;42964;42.910;23.792;2023-02-03T18:26:48;97827.66;;;3.57;42.82
57086;BME280;42964;42.910;23.792;2023-02-03T18:31:47;97824.06;;;3.52;43.78
57086;BME280;42964;42.910;23.792;2023-02-03T18:36:46;97788.00;;;3.47;43.65
57086;BME280;42964;42.910;23.792;2023-02-03T18:41:45;97774.44;;;3.51;43.62
57086;BME280;42964;42.910;23.792;2023-02-03T18:46:44;97790.09;;;3.60;43.64
57086;BME280;42964;42.910;23.792;2023-02-03T18:51:43;97791.78;;;3.60;44.35
57086;BME280;42964;42.910;23.792;2023-02-03T18:56:42;97812.25;;;3.57;43.76
57086;BME280;42964;42.910;23.792;2023-02-03T19:01:42;97796.22;;;3.65;44.78
57086;BME280;42964;42.910;23.792;2023-02-03T19:06:44;97805.69;;;3.68;44.57
57086;BME280;42964;42.910;23.792;2023-02-03T19:11:43;97793.94;;;3.76;44.71
57086;BME280;42964;42.910;23.792;2023-02-03T19:16:42;97788.81;;;3.76;44.67
57086;BME280;42964;42.910;23.792;2023-02-03T19:21:41;97780.25;;;3.77;44.73
57086;BME280;42964;42.910;23.792;2023-02-03T19:26:40;97766.75;;;3.84;44.82
57086;BME280;42964;42.910;23.792;2023-02-03T19:31:39;97762.63;;;3.90;45.25
57086;BME280;42964;42.910;23.792;2023-02-03T19:36:38;97759.28;;;3.94;44.91
57086;BME280;42964;42.910;23.792;2023-02-03T19:41:36;97755.63;;;3.82;45.24
57086;BME280;42964;42.910;23.792;2023-02-03T19:46:36;97740.66;;;3.66;45.87
57086;BME280;42964;42.910;23.792;2023-02-03T19:51:35;97751.16;;;3.75;45.99
57086;BME280;42964;42.910;23.792;2023-02-03T19:56:34;97738.41;;;3.80;46.03
57086;BME280;42964;42.910;23.792;2023-02-03T20:01:33;97740.16;;;3.81;45.88
57086;BME280;42964;42.910;23.792;2023-02-03T20:06:32;97725.84;;;3.91;46.03
57086;BME280;42964;42.910;23.792;2023-02-03T20:11:31;97733.50;;;3.89;46.93
57086;BME280;42964;42.910;23.792;2023-02-03T20:16:30;97725.06;;;3.93;47.33
57086;BME280;42964;42.910;23.792;2023-02-03T20:21:29;97718.25;;;3.95;46.86
57086;BME280;42964;42.910;23.792;2023-02-03T20:26:28;97711.53;;;3.99;47.29
57086;BME280;42964;42.910;23.792;2023-02-03T20:31:27;97709.19;;;4.08;46.72
57086;BME280;42964;42.910;23.792;2023-02-03T20:36:26;97693.91;;;4.14;47.16
57086;BME280;42964;42.910;23.792;2023-02-03T20:41:24;97694.16;;;4.26;46.76
57086;BME280;42964;42.910;23.792;2023-02-03T20:46:24;97678.16;;;4.37;46.11
57086;BME280;42964;42.910;23.792;2023-02-03T20:51:23;97655.03;;;4.37;46.26
57086;BME280;42964;42.910;23.792;2023-02-03T20:56:24;97658.81;;;4.54;45.89
57086;BME280;42964;42.910;23.792;2023-02-03T21:01:23;97667.88;;;4.78;45.49
57086;BME280;42964;42.910;23.792;2023-02-03T21:06:23;97656.84;;;4.83;45.33
57086;BME280;42964;42.910;23.792;2023-02-03T21:11:28;97656.72;;;4.77;45.08
57086;BME280;42964;42.910;23.792;2023-02-03T21:16:36;97656.53;;;4.68;44.88
57086;BME280;42964;42.910;23.792;2023-02-03T21:21:38;97652.94;;;4.60;44.87
57086;BME280;42964;42.910;23.792;2023-02-03T21:26:39;97665.00;;;4.64;45.59
57086;BME280;42964;42.910;23.792;2023-02-03T21:31:39;97657.38;;;4.68;46.40
57086;BME280;42964;42.910;23.792;2023-02-03T21:36:38;97655.44;;;4.55;46.73
57086;BME280;42964;42.910;23.792;2023-02-03T21:41:37;97646.81;;;4.53;47.07
57086;BME280;42964;42.910;23.792;2023-02-03T21:46:36;97647.56;;;4.49;47.57
57086;BME280;42964;42.910;23.792;2023-02-03T21:51:37;97629.50;;;4.44;48.28
57086;BME280;42964;42.910;23.792;2023-02-03T21:56:38;97626.13;;;4.47;48.21
57086;BME280;42964;42.910;23.792;2023-02-03T22:01:38;97609.09;;;4.52;48.33
57086;BME280;42964;42.910;23.792;2023-02-03T22:06:47;97623.22;;;4.72;48.38
57086;BME280;42964;42.910;23.792;2023-02-03T22:11:52;97608.50;;;4.65;49.07
57086;BME280;42964;42.910;23.792;2023-02-03T22:16:51;97615.16;;;4.56;49.29
57086;BME280;42964;42.910;23.792;2023-02-03T22:21:50;97604.69;;;4.46;49.87
57086;BME280;42964;42.910;23.792;2023-02-03T22:26:50;97604.47;;;4.36;50.72
57086;BME280;42964;42.910;23.792;2023-02-03T22:31:49;97604.66;;;4.45;51.15
57086;BME280;42964;42.910;23.792;2023-02-03T22:36:47;97597.97;;;4.12;52.45
57086;BME280;42964;42.910;23.792;2023-02-03T22:41:46;97600.38;;;4.04;53.45
57086;BME280;42964;42.910;23.792;2023-02-03T22:46:45;97587.78;;;4.15;53.17
57086;BME280;42964;42.910;23.792;2023-02-03T22:51:44;97575.66;;;4.08;53.37
57086;BME280;42964;42.910;23.792;2023-02-03T22:56:43;97585.56;;;3.93;53.88
57086;BME280;42964;42.910;23.792;2023-02-03T23:01:42;97561.09;;;4.08;54.06
57086;BME280;42964;42.910;23.792;2023-02-03T23:06:41;97539.66;;;4.06;54.55
57086;BME280;42964;42.910;23.792;2023-02-03T23:11:40;97523.22;;;3.98;54.61
57086;BME280;42964;42.910;23.792;2023-02-03T23:16:39;97522.59;;;4.08;55.17
57086;BME280;42964;42.910;23.792;2023-02-03T23:21:38;97499.91;;;3.89;55.54
57086;BME280;42964;42.910;23.792;2023-02-03T23:26:37;97516.00;;;3.80;55.89
57086;BME280;42964;42.910;23.792;2023-02-03T23:31:36;97506.75;;;3.87;56.23
57086;BME280;42964;42.910;23.792;2023-02-03T23:36:35;97491.25;;;3.82;57.07
57086;BME280;42964;42.910;23.792;2023-02-03T23:41:34;97477.59;;;3.85;57.52
57086;BME280;42964;42.910;23.792;2023-02-03T23:46:33;97481.44;;;3.64;58.63
57086;BME280;42964;42.910;23.792;2023-02-03T23:51:32;97438.91;;;3.76;58.20
57086;BME280;42964;42.910;23.792;2023-02-03T23:56:31;97453.78;;;3.94;58.04
